Time;durP1;ratioP1;P1;durP2;ratioP2;P2;SDS_P1;SDS_P2;PMS_P1;PMS_P2;Temp;Humidity;BMP_temperature;BMP_pressure;BME280_temperature;BME280_humidity;BME280_pressure;Samples;Min_cycle;Max_cycle;Signal;HPM_P1;HPM_P2
2020/12/28 00:01:55;;;;;;;11.25;4.03;;;;;;;8.29;66.98;92947.69;5084076;28;20017;-70
2020/12/28 00:04:21;;;;;;;9.70;3.75;;;;;;;8.16;67.30;92954.78;5074890;28;20035;-70
2020/12/28 00:06:47;;;;;;;8.70;3.67;;;;;;;7.94;67.89;92953.16;5072053;28;20021;-71
2020/12/28 00:09:13;;;;;;;9.43;4.28;;;;;;;7.59;69.15;92969.19;5090580;28;20024;-71
2020/12/28 00:11:39;;;;;;;12.20;4.55;;;;;;;7.34;70.10;92952.22;5091911;28;20027;-70
2020/12/28 00:14:05;;;;;;;10.02;4.72;;;;;;;7.43;69.92;92962.81;5092057;28;20088;-70
2020/12/28 00:16:32;;;;;;;8.50;4.85;;;;;;;7.14;71.60;92966.09;5090686;28;20027;-70
2020/12/28 00:18:57;;;;;;;11.48;4.70;;;;;;;7.15;71.26;92965.81;5090474;28;20036;-70
2020/12/28 00:21:23;;;;;;;9.18;4.15;;;;;;;7.02;72.14;92972.81;5090366;28;20043;-71
2020/12/28 00:23:48;;;;;;;9.43;4.00;;;;;;;7.10;71.73;92981.06;5091368;28;20395;-71
2020/12/28 00:26:14;;;;;;;7.63;4.30;;;;;;;7.09;71.74;92979.53;5091877;28;20081;-71
2020/12/28 00:28:39;;;;;;;9.43;4.10;;;;;;;7.08;71.94;92970.00;5091353;28;20456;-71
2020/12/28 00:31:08;;;;;;;11.10;4.18;;;;;;;7.11;71.75;92967.50;5091768;28;20024;-71
2020/12/28 00:33:34;;;;;;;7.82;4.40;;;;;;;7.14;71.78;92964.22;5091448;28;20050;-71
2020/12/28 00:35:59;;;;;;;8.57;3.50;;;;;;;7.19;71.81;92960.66;5090457;28;20020;-71
2020/12/28 00:38:25;;;;;;;8.13;4.05;;;;;;;7.21;71.96;92953.19;5091631;28;20028;-71
2020/12/28 00:40:50;;;;;;;7.32;3.83;;;;;;;7.28;71.53;92947.38;5089775;28;20483;-72
2020/12/28 00:43:16;;;;;;;6.70;3.20;;;;;;;7.25;71.37;92954.09;5090134;28;20020;-72
2020/12/28 00:45:41;;;;;;;4.30;2.60;;;;;;;7.28;71.44;92953.47;5088725;28;20056;-72
2020/12/28 00:48:07;;;;;;;6.00;2.50;;;;;;;7.29;71.40;92957.69;5071565;28;20119;-72
2020/12/28 00:50:32;;;;;;;5.53;2.78;;;;;;;7.35;71.10;92959.09;5091546;28;20024;-72
2020/12/28 00:52:57;;;;;;;6.05;3.25;;;;;;;7.34;71.16;92956.75;5089755;28;20043;-73
2020/12/28 00:55:23;;;;;;;11.52;3.50;;;;;;;7.30;71.08;92953.94;5089953;28;20047;-73
2020/12/28 00:57:48;;;;;;;7.28;3.50;;;;;;;7.25;71.17;92956.75;5091083;28;20028;-73
2020/12/28 01:00:14;;;;;;;7.97;3.65;;;;;;;7.30;71.09;92945.97;5089909;28;20111;-73
2020/12/28 01:02:39;;;;;;;8.50;4.18;;;;;;;7.27;70.89;92946.63;5089678;28;20431;-73
2020/12/28 01:05:05;;;;;;;10.27;3.50;;;;;;;7.26;71.20;92939.75;5083856;28;20090;-73
2020/12/28 01:07:30;;;;;;;6.50;3.45;;;;;;;7.21;71.71;92929.31;5073615;28;20034;-73
2020/12/28 01:09:56;;;;;;;7.47;3.45;;;;;;;7.24;71.25;92939.28;5090798;28;20024;-73
2020/12/28 01:12:21;;;;;;;7.28;3.42;;;;;;;7.27;71.31;92962.53;5090814;28;20028;-72
2020/12/28 01:14:46;;;;;;;7.63;3.75;;;;;;;7.26;71.19;92955.66;5088681;28;20549;-73
2020/12/28 01:17:12;;;;;;;7.05;3.50;;;;;;;7.19;71.51;92955.38;5090434;28;20491;-73
2020/12/28 01:19:37;;;;;;;8.05;3.63;;;;;;;7.19;71.12;92977.34;5090480;28;20479;-73
2020/12/28 01:22:03;;;;;;;7.55;3.22;;;;;;;7.16;71.21;92977.16;5090808;28;20032;-73
2020/12/28 01:24:28;;;;;;;8.43;3.85;;;;;;;7.12;71.36;92970.94;5090449;28;20490;-73
2020/12/28 01:26:54;;;;;;;5.68;3.20;;;;;;;7.02;71.67;92970.19;5090586;28;20035;-73
2020/12/28 01:29:19;;;;;;;7.07;3.25;;;;;;;7.02;71.63;92967.53;5090462;28;20399;-73
2020/12/28 01:31:45;;;;;;;7.15;3.35;;;;;;;6.90;72.03;92961.28;5090147;28;20441;-73
2020/12/28 01:34:11;;;;;;;8.18;3.55;;;;;;;6.92;71.77;92973.13;5089157;28;20546;-73
2020/12/28 01:36:36;;;;;;;8.32;3.88;;;;;;;6.74;72.71;92958.31;5089287;28;20062;-72
2020/12/28 01:39:02;;;;;;;11.43;4.55;;;;;;;6.73;72.79;92964.69;5089999;28;20471;-73
2020/12/28 01:41:28;;;;;;;8.50;4.50;;;;;;;6.63;73.02;92966.56;5090473;28;20043;-72
2020/12/28 01:43:53;;;;;;;10.00;4.20;;;;;;;6.60;73.99;92959.22;5088753;28;20032;-72
2020/12/28 01:46:19;;;;;;;7.85;3.63;;;;;;;6.69;73.44;92966.41;5089068;28;20149;-72
2020/12/28 01:48:45;;;;;;;9.13;4.13;;;;;;;6.70;72.97;92954.75;5089023;28;20032;-72
2020/12/28 01:51:11;;;;;;;14.77;5.93;;;;;;;6.71;72.87;92948.34;5088396;28;20024;-72
2020/12/28 01:53:37;;;;;;;11.75;5.13;;;;;;;6.67;72.87;92945.53;5088844;28;20499;-72
2020/12/28 01:56:05;;;;;;;8.02;4.35;;;;;;;6.72;73.10;92949.91;5089934;28;20032;-72
2020/12/28 01:58:31;;;;;;;10.38;4.93;;;;;;;6.77;73.07;92939.91;5088754;28;20032;-72
2020/12/28 02:00:57;;;;;;;10.43;5.30;;;;;;;6.78;72.72;92946.78;5088780;28;20132;-72
2020/12/28 02:03:24;;;;;;;12.45;5.32;;;;;;;6.77;72.76;92931.97;5088279;28;20020;-72
2020/12/28 02:05:50;;;;;;;11.30;5.38;;;;;;;6.76;72.55;92925.13;5088756;28;20028;-72
2020/12/28 02:08:16;;;;;;;13.70;6.53;;;;;;;6.78;72.04;92932.78;5089889;28;20043;-72
2020/12/28 02:10:42;;;;;;;10.43;4.22;;;;;;;6.59;72.71;92925.91;5088506;28;20035;-71
2020/12/28 02:13:07;;;;;;;9.40;4.38;;;;;;;6.53;73.22;92913.13;5088278;28;20031;-71
2020/12/28 02:15:33;;;;;;;12.98;5.63;;;;;;;6.57;73.36;92909.56;5087936;28;20024;-71
2020/12/28 02:17:59;;;;;;;17.73;5.10;;;;;;;6.57;73.17;92911.41;5089502;28;20040;-71
2020/12/28 02:20:24;;;;;;;8.52;4.18;;;;;;;6.48;73.38;92908.75;5087946;28;20495;-71
2020/12/28 02:22:50;;;;;;;9.82;4.03;;;;;;;6.48;72.87;92919.34;5089557;28;20515;-71
2020/12/28 02:25:15;;;;;;;9.23;4.25;;;;;;;6.55;72.99;92922.31;5089557;28;20088;-70
2020/12/28 02:27:41;;;;;;;11.15;4.70;;;;;;;6.57;73.03;92922.81;5089001;28;20031;-71
2020/12/28 02:30:06;;;;;;;8.32;3.80;;;;;;;6.65;72.32;92926.53;5088009;28;20146;-71
2020/12/28 02:32:32;;;;;;;10.70;4.40;;;;;;;6.70;72.11;92922.97;5089171;28;20565;-72
2020/12/28 02:34:57;;;;;;;7.82;4.05;;;;;;;6.77;71.92;92920.63;5089367;28;20063;-72
2020/12/28 02:37:23;;;;;;;6.38;3.85;;;;;;;6.79;71.64;92931.69;5087892;28;20043;-72
2020/12/28 02:39:49;;;;;;;4.55;2.65;;;;;;;6.78;71.80;92927.47;5089305;28;20070;-72
2020/12/28 02:42:14;;;;;;;7.68;3.20;;;;;;;6.86;71.54;92941.78;5089287;28;20023;-72
2020/12/28 02:44:40;;;;;;;8.80;4.22;;;;;;;6.80;71.65;92941.97;5087715;28;20080;-73
2020/12/28 02:47:05;;;;;;;10.05;3.30;;;;;;;6.70;72.58;92933.56;5089271;28;20024;-71
2020/12/28 02:49:31;;;;;;;8.35;3.50;;;;;;;6.85;72.17;92938.38;5089373;28;20028;-71
2020/12/28 02:51:56;;;;;;;5.53;3.22;;;;;;;6.87;72.13;92957.38;5088720;28;20044;-72
2020/12/28 02:54:22;;;;;;;6.57;3.33;;;;;;;6.93;71.89;92958.00;5089320;28;20398;-71
2020/12/28 02:56:47;;;;;;;7.93;3.38;;;;;;;6.99;71.51;92962.84;5089118;28;20028;-71
2020/12/28 02:59:13;;;;;;;9.30;4.07;;;;;;;7.07;71.27;92963.16;5088809;28;20479;-71
2020/12/28 03:01:38;;;;;;;14.70;5.22;;;;;;;7.12;71.35;92955.03;5089213;28;20016;-71
2020/12/28 03:04:04;;;;;;;8.15;3.88;;;;;;;7.15;71.06;92963.16;5087723;28;20047;-71
2020/12/28 03:06:30;;;;;;;9.40;3.88;;;;;;;7.23;70.62;92953.63;5087750;28;20023;-72
2020/12/28 03:08:56;;;;;;;12.95;5.30;;;;;;;7.28;70.74;92964.06;5089291;28;20028;-71
2020/12/28 03:11:21;;;;;;;9.00;4.57;;;;;;;7.30;70.36;92955.81;5069263;28;20028;-71
2020/12/28 03:13:47;;;;;;;10.18;4.53;;;;;;;7.27;70.79;92957.22;5067619;28;20047;-72
2020/12/28 03:16:13;;;;;;;10.77;4.88;;;;;;;7.32;70.22;92940.38;5067611;28;20028;-72
2020/12/28 03:18:38;;;;;;;13.93;5.50;;;;;;;7.33;70.25;92937.41;5068957;28;20027;-72
2020/12/28 03:21:04;;;;;;;7.97;4.45;;;;;;;7.31;70.10;92944.13;5068686;28;20517;-71
2020/12/28 03:23:29;;;;;;;10.60;5.20;;;;;;;7.29;70.35;92955.03;5068670;28;20365;-71
2020/12/28 03:25:55;;;;;;;17.55;5.22;;;;;;;7.27;70.06;92941.31;5067529;28;21307;-72
2020/12/28 03:28:20;;;;;;;11.38;5.70;;;;;;;7.27;70.36;92946.63;5068757;28;20065;-72
2020/12/28 03:30:48;;;;;;;11.95;5.63;;;;;;;7.31;69.78;92939.59;5068777;28;20108;-72
2020/12/28 03:33:13;;;;;;;10.73;5.57;;;;;;;7.25;69.69;92942.72;5068572;28;20028;-72
2020/12/28 03:35:40;;;;;;;16.88;5.88;;;;;;;7.25;69.83;92940.09;5076413;28;20514;-72
2020/12/28 03:38:06;;;;;;;11.07;5.28;;;;;;;7.27;69.45;92936.00;5088639;28;20046;-72
2020/12/28 03:40:31;;;;;;;12.13;5.95;;;;;;;7.25;69.93;92946.16;5092381;28;20028;-72
2020/12/28 03:42:57;;;;;;;14.40;7.03;;;;;;;7.09;70.52;92939.78;5092800;28;20078;-71
2020/12/28 03:45:22;;;;;;;11.43;6.28;;;;;;;7.06;70.88;92927.16;5092548;28;20115;-71
2020/12/28 03:47:48;;;;;;;11.88;6.63;;;;;;;7.12;70.58;92917.94;5092365;28;20461;-71
2020/12/28 03:50:13;;;;;;;15.35;6.28;;;;;;;7.09;70.86;92926.53;5092706;28;20027;-71
2020/12/28 03:52:39;;;;;;;7.53;4.15;;;;;;;7.10;69.72;92936.03;5090859;28;20054;-72
2020/12/28 03:55:06;;;;;;;4.80;2.13;;;;;;;7.15;66.50;92914.69;5092227;28;20478;-72
2020/12/28 03:57:32;;;;;;;3.88;1.88;;;;;;;7.23;66.43;92929.78;5090981;28;20035;-72
2020/12/28 03:59:57;;;;;;;4.05;1.90;;;;;;;7.32;66.45;92946.44;5090882;28;20024;-71
2020/12/28 04:02:23;;;;;;;4.93;2.22;;;;;;;7.35;66.83;92932.56;5092385;28;20039;-71
2020/12/28 04:04:49;;;;;;;6.10;2.78;;;;;;;7.42;67.44;92948.75;5090714;28;20032;-72
2020/12/28 04:07:15;;;;;;;7.68;3.53;;;;;;;7.35;68.45;92926.50;5090770;28;20518;-72
2020/12/28 04:09:40;;;;;;;8.93;3.92;;;;;;;7.34;69.03;92954.09;5092159;28;20475;-71
2020/12/28 04:12:05;;;;;;;8.10;4.45;;;;;;;7.15;69.52;92981.69;5090618;28;20027;-71
2020/12/28 04:14:31;;;;;;;10.90;5.38;;;;;;;7.14;69.69;92944.91;5092071;28;20031;-71
2020/12/28 04:16:56;;;;;;;9.13;4.38;;;;;;;7.11;69.95;92956.16;5092048;28;20027;-72
2020/12/28 04:19:22;;;;;;;11.68;4.95;;;;;;;7.10;69.96;92962.53;5080299;28;20034;-72
2020/12/28 04:21:47;;;;;;;6.47;4.18;;;;;;;7.11;70.01;92951.63;5071784;28;20016;-72
2020/12/28 04:24:15;;;;;;;8.85;4.40;;;;;;;7.05;69.72;92965.34;5071555;28;20024;-70
2020/12/28 04:26:44;;;;;;;8.38;4.47;;;;;;;6.90;70.14;92972.66;5089219;28;20024;-70
2020/12/28 04:29:11;;;;;;;8.18;4.88;;;;;;;6.83;70.76;92956.44;5091642;28;20024;-69
2020/12/28 04:31:37;;;;;;;11.57;4.72;;;;;;;6.84;71.04;92950.06;5092146;28;20498;-69
2020/12/28 04:34:03;;;;;;;8.57;4.40;;;;;;;6.81;70.71;92945.38;5092531;28;20024;-70
2020/12/28 04:36:28;;;;;;;8.50;4.75;;;;;;;6.76;71.32;92956.16;5092414;28;20031;-70
2020/12/28 04:38:54;;;;;;;9.68;5.30;;;;;;;6.73;71.47;92970.75;5092369;28;20483;-71
2020/12/28 04:41:20;;;;;;;9.15;4.55;;;;;;;6.75;71.34;92978.41;5091920;28;20028;-71
2020/12/28 04:43:45;;;;;;;12.95;5.30;;;;;;;6.75;71.50;92976.53;5088504;28;20032;-71
2020/12/28 04:46:11;;;;;;;10.30;5.53;;;;;;;6.76;71.69;92978.09;5072165;28;20476;-72
2020/12/28 04:48:38;;;;;;;9.18;4.88;;;;;;;6.78;71.62;92983.88;5072159;28;20064;-71
2020/12/28 04:51:03;;;;;;;10.65;5.78;;;;;;;6.80;71.78;92981.69;5069930;28;20024;-72
2020/12/28 04:53:32;;;;;;;11.75;5.80;;;;;;;6.81;71.75;92966.56;5069539;28;20392;-72
2020/12/28 04:55:58;;;;;;;10.23;6.30;;;;;;;6.78;71.72;92983.88;5089316;28;20035;-71
2020/12/28 04:58:24;;;;;;;10.18;5.85;;;;;;;6.58;72.02;92976.53;5089888;28;20028;-72
2020/12/28 05:00:57;;;;;;;8.88;5.32;;;;;;;6.50;72.54;92987.88;5089780;28;20024;-71
2020/12/28 05:03:23;;;;;;;16.10;5.57;;;;;;;6.47;72.63;92993.78;5091094;28;20023;-71
2020/12/28 05:05:49;;;;;;;8.80;5.10;;;;;;;6.36;72.99;92998.59;5091025;28;20032;-71
2020/12/28 05:08:16;;;;;;;9.98;4.25;;;;;;;6.26;73.41;92994.34;5090638;28;20028;-72
2020/12/28 05:10:43;;;;;;;11.00;3.90;;;;;;;6.42;72.09;93002.66;5090676;28;20507;-71
2020/12/28 05:13:10;;;;;;;8.05;4.07;;;;;;;6.48;71.53;93006.72;5089286;28;20027;-72
2020/12/28 05:15:50;;;;;;;7.15;3.28;;;;;;;6.49;71.39;92992.38;5090833;28;20036;-71
2020/12/28 05:18:17;;;;;;;5.65;3.30;;;;;;;6.55;71.18;92998.31;5090663;28;20031;-71
2020/12/28 05:20:47;;;;;;;9.68;4.03;;;;;;;6.53;70.84;93009.19;5089498;28;20415;-72
2020/12/28 05:23:14;;;;;;;4.75;2.95;;;;;;;6.52;70.55;93012.94;5090346;28;20055;-71
2020/12/28 05:25:43;;;;;;;6.97;3.17;;;;;;;6.53;69.99;92989.91;5090598;28;20465;-71
2020/12/28 05:28:13;;;;;;;5.93;2.88;;;;;;;6.58;69.38;93001.13;5081981;28;20442;-71
2020/12/28 05:30:45;;;;;;;3.95;1.40;;;;;;;6.59;67.80;93015.94;5069528;28;20089;-71
2020/12/28 05:33:11;;;;;;;;;;;;;;;6.65;67.35;93027.16;5070093;28;20025;-71
2020/12/28 05:35:37;;;;;;;5.35;3.00;;;;;;;6.67;68.84;93018.91;5069623;28;19999;-71
2020/12/28 05:38:04;;;;;;;8.77;3.72;;;;;;;6.67;70.20;93029.50;5071056;28;20035;-72
2020/12/28 05:40:31;;;;;;;9.52;4.53;;;;;;;6.58;70.70;93032.13;5069378;28;20024;-72
2020/12/28 05:42:57;;;;;;;10.90;4.65;;;;;;;6.52;71.65;93049.25;5070174;28;20020;-71
2020/12/28 05:45:23;;;;;;;12.13;5.22;;;;;;;6.51;72.02;93045.78;5070558;28;20035;-71
2020/12/28 05:47:51;;;;;;;10.48;5.00;;;;;;;6.55;72.72;93056.56;5069674;28;20141;-71
2020/12/28 05:50:23;;;;;;;10.73;5.57;;;;;;;6.60;72.72;93054.56;5088996;28;20020;-71
2020/12/28 05:52:59;;;;;;;13.10;6.28;;;;;;;6.60;72.79;93056.44;5089549;28;20032;-71
2020/12/28 05:55:27;;;;;;;10.25;5.53;;;;;;;6.68;72.53;93058.31;5090056;28;20596;-71
2020/12/28 05:57:57;;;;;;;9.40;5.97;;;;;;;6.75;72.49;93056.00;5088510;28;20023;-71
2020/12/28 06:00:23;;;;;;;9.25;5.10;;;;;;;6.87;71.89;93062.56;5090031;28;20024;-71
2020/12/28 06:02:49;;;;;;;11.65;6.10;;;;;;;6.95;71.67;93072.41;5078777;28;20013;-71
2020/12/28 06:05:17;;;;;;;8.75;4.90;;;;;;;7.02;71.62;93057.63;5069829;28;22286;-71
2020/12/28 06:07:43;;;;;;;9.57;5.10;;;;;;;7.10;70.90;93055.28;5104665;28;20039;-70
2020/12/28 06:10:10;;;;;;;11.30;4.75;;;;;;;7.18;70.36;93070.41;5088278;28;20051;-70
2020/12/28 06:12:37;;;;;;;8.35;4.90;;;;;;;7.17;70.27;93074.16;5088208;28;20523;-69
2020/12/28 06:15:15;;;;;;;12.93;5.32;;;;;;;7.20;69.81;93084.88;5089652;28;20399;-72
2020/12/28 06:17:41;;;;;;;10.70;5.50;;;;;;;7.13;69.71;93073.22;5088468;28;20081;-72
2020/12/28 06:20:08;;;;;;;9.02;5.13;;;;;;;7.15;70.37;93081.63;5077176;28;20028;-72
2020/12/28 06:22:34;;;;;;;11.77;5.72;;;;;;;7.16;70.41;93077.88;5087065;28;20418;-72
2020/12/28 06:25:17;;;;;;;12.02;7.30;;;;;;;7.21;70.11;93083.03;5089512;28;20036;-72
2020/12/28 06:27:45;;;;;;;9.93;5.97;;;;;;;7.26;70.10;93088.19;5088266;28;20031;-72
2020/12/28 06:30:21;;;;;;;12.07;6.07;;;;;;;7.32;69.81;93100.19;5088037;28;20032;-72
2020/12/28 06:33:04;;;;;;;10.77;5.20;;;;;;;7.27;69.45;93092.41;5089470;28;20024;-72
2020/12/28 06:35:31;;;;;;;9.07;5.35;;;;;;;7.23;69.39;93094.88;5089190;28;20899;-72
2020/12/28 06:38:00;;;;;;;10.32;5.53;;;;;;;7.31;69.61;93100.53;5088294;28;20539;-72
2020/12/28 06:40:33;;;;;;;12.88;6.18;;;;;;;7.42;69.60;93102.53;5088872;28;20020;-73
2020/12/28 06:43:13;;;;;;;12.77;6.22;;;;;;;7.54;69.65;93098.50;5087930;28;20097;-72
2020/12/28 06:45:40;;;;;;;16.77;7.85;;;;;;;7.59;69.93;93091.16;5089251;28;20081;-71
2020/12/28 06:48:22;;;;;;;18.23;7.80;;;;;;;7.66;69.18;93089.91;5074862;28;20024;-71
2020/12/28 06:50:48;;;;;;;;;;;;;;;7.66;68.62;93090.69;5087131;28;20032;-71
2020/12/28 06:53:22;;;;;;;16.20;6.88;;;;;;;7.53;69.06;93076.50;5089119;28;20407;-70
2020/12/28 06:55:47;;;;;;;12.10;6.25;;;;;;;7.56;69.23;93083.06;5088992;28;20032;-70
2020/12/28 06:58:13;;;;;;;6.45;3.83;;;;;;;7.53;68.71;93086.31;5087970;28;20107;-70
2020/12/28 07:00:39;;;;;;;14.18;5.35;;;;;;;7.62;68.73;93084.44;5087625;28;20024;-70
2020/12/28 07:03:11;;;;;;;9.30;5.05;;;;;;;7.71;68.70;93079.91;5089117;28;20789;-70
2020/12/28 07:05:37;;;;;;;13.18;5.38;;;;;;;7.80;68.65;93085.22;5087935;28;20055;-70
2020/12/28 07:08:03;;;;;;;13.38;6.53;;;;;;;7.90;67.75;93079.59;5088677;28;20112;-70
2020/12/28 07:10:28;;;;;;;14.07;7.53;;;;;;;7.97;67.96;93082.53;5079738;28;20082;-70
2020/12/28 07:13:03;;;;;;;14.18;7.47;;;;;;;7.97;68.36;93073.81;5067421;28;20492;-71
2020/12/28 07:15:28;;;;;;;12.93;6.82;;;;;;;8.07;67.59;93094.69;5071238;28;20028;-70
2020/12/28 07:17:54;;;;;;;10.60;5.90;;;;;;;8.13;67.95;93098.75;5071373;28;20034;-70
2020/12/28 07:20:19;;;;;;;11.05;6.57;;;;;;;8.19;67.89;93073.59;5072476;28;20029;-71
2020/12/28 07:22:45;;;;;;;15.73;6.00;;;;;;;8.15;68.04;93070.00;5077392;28;20024;-71
2020/12/28 07:25:12;;;;;;;14.93;5.72;;;;;;;8.13;68.14;93090.78;5084005;28;20082;-71
2020/12/28 07:27:42;;;;;;;10.40;5.35;;;;;;;7.82;69.45;93105.03;5072480;28;20043;-71
2020/12/28 07:30:10;;;;;;;16.17;6.43;;;;;;;7.68;69.60;93109.72;5072590;28;20068;-71
2020/12/28 07:32:36;;;;;;;13.27;6.90;;;;;;;7.51;70.60;93094.59;5072481;28;20035;-71
2020/12/28 07:35:02;;;;;;;12.25;6.93;;;;;;;7.35;70.50;93096.16;5072265;28;20488;-73
2020/12/28 07:37:29;;;;;;;11.25;6.28;;;;;;;7.47;70.82;93135.28;5087642;28;20453;-71
2020/12/28 07:39:55;;;;;;;15.23;5.78;;;;;;;7.19;71.54;93140.88;5091206;28;20059;-71
2020/12/28 07:42:22;;;;;;;11.43;5.82;;;;;;;7.30;70.60;93136.06;5091980;28;20059;-71
2020/12/28 07:45:11;;;;;;;12.07;6.30;;;;;;;7.33;69.71;93109.72;5092237;28;20052;-72
2020/12/28 07:47:44;;;;;;;10.30;5.10;;;;;;;7.31;68.82;93111.13;5084746;28;20047;-69
2020/12/28 07:50:12;;;;;;;11.80;6.43;;;;;;;7.40;69.51;93117.19;5081848;28;20028;-68
2020/12/28 07:52:51;;;;;;;10.20;5.75;;;;;;;7.54;70.46;93119.72;5074170;28;20143;-70
2020/12/28 07:55:20;;;;;;;15.73;7.20;;;;;;;7.66;70.44;93132.34;5085590;28;20511;-70
2020/12/28 07:58:12;;;;;;;9.90;5.70;;;;;;;7.69;69.17;93137.78;5076927;28;20036;-67
2020/12/28 08:00:43;;;;;;;9.50;5.80;;;;;;;7.77;68.58;93121.09;5074304;28;20024;-68
2020/12/28 08:03:18;;;;;;;11.15;6.53;;;;;;;7.87;68.96;93111.28;5074176;28;20424;-71
2020/12/28 08:05:45;;;;;;;9.80;5.40;;;;;;;7.95;67.77;93113.91;5074512;28;20462;-71
2020/12/28 08:08:24;;;;;;;9.30;4.85;;;;;;;8.16;67.60;93105.28;5072724;28;20085;-69
2020/12/28 08:10:57;;;;;;;11.32;6.28;;;;;;;8.24;67.05;93105.28;5074040;28;20081;-70
2020/12/28 08:13:40;;;;;;;15.35;7.15;;;;;;;8.28;67.20;93080.75;5074030;28;20107;-67
2020/12/28 08:16:07;;;;;;;11.60;5.57;;;;;;;8.35;67.16;93076.50;5074050;28;20028;-67
2020/12/28 08:18:49;;;;;;;12.82;5.70;;;;;;;8.44;66.53;93085.25;5074145;28;20039;-66
2020/12/28 08:21:15;;;;;;;;;;;;;;;8.51;64.91;93082.13;5074171;28;20032;-70
2020/12/28 08:23:48;;;;;;;10.57;5.68;;;;;;;8.46;66.17;93069.00;5074513;28;20021;-67
2020/12/28 08:26:22;;;;;;;11.05;6.20;;;;;;;8.53;66.29;93069.31;5093689;28;20027;-68
2020/12/28 08:28:50;;;;;;;11.70;6.05;;;;;;;8.54;66.07;93065.53;5092720;28;20474;-67
2020/12/28 08:31:16;;;;;;;14.02;7.00;;;;;;;8.57;65.87;93077.41;5088119;28;20024;-67
2020/12/28 08:33:42;;;;;;;18.65;7.13;;;;;;;8.58;65.60;93053.16;5092512;28;20461;-68
2020/12/28 08:36:07;;;;;;;19.48;5.90;;;;;;;8.62;65.21;93053.31;5093981;28;20053;-68
2020/12/28 08:38:33;;;;;;;10.88;6.20;;;;;;;8.66;64.87;93056.13;5092341;28;20088;-68
2020/12/28 08:40:59;;;;;;;13.25;5.72;;;;;;;8.60;66.08;93034.25;5092509;28;20024;-67
2020/12/28 08:43:25;;;;;;;13.35;6.05;;;;;;;8.56;65.87;93031.47;5092497;28;20020;-67
2020/12/28 08:46:10;;;;;;;10.45;5.97;;;;;;;8.39;66.41;93042.16;5093623;28;20089;-67
2020/12/28 08:48:36;;;;;;;8.95;5.43;;;;;;;8.06;66.55;93061.31;5088076;28;20040;-67
2020/12/28 08:51:12;;;;;;;8.70;4.88;;;;;;;7.94;66.94;93055.88;5073430;28;20040;-68
2020/12/28 08:53:37;;;;;;;9.02;5.15;;;;;;;7.92;67.14;93050.88;5073247;28;20534;-67
2020/12/28 08:56:03;;;;;;;11.93;6.07;;;;;;;7.91;68.03;93044.00;5071990;28;20051;-67
2020/12/28 08:58:28;;;;;;;12.60;6.28;;;;;;;7.96;67.59;93046.50;5073254;28;20029;-68
2020/12/28 09:00:54;;;;;;;11.80;6.88;;;;;;;7.96;68.12;93033.22;5071755;28;20032;-67
2020/12/28 09:03:20;;;;;;;17.00;7.10;;;;;;;7.92;68.50;93042.13;5088721;28;20085;-67
2020/12/28 09:05:45;;;;;;;11.57;6.47;;;;;;;7.55;68.40;93044.34;5093378;28;20034;-67
2020/12/28 09:08:10;;;;;;;12.82;6.35;;;;;;;7.64;68.99;93045.13;5082736;28;20390;-77
2020/12/28 09:10:36;;;;;;;11.95;6.78;;;;;;;7.56;68.58;93048.56;5077066;28;20038;-74
2020/12/28 09:13:02;;;;;;;18.15;6.82;;;;;;;7.74;68.28;93039.50;5083800;28;20023;-76
2020/12/28 09:15:27;;;;;;;14.70;6.40;;;;;;;7.89;68.61;93034.78;5080579;28;20032;-69
2020/12/28 09:17:53;;;;;;;11.85;7.03;;;;;;;8.06;68.17;93041.94;5088569;28;20129;-73
2020/12/28 09:20:19;;;;;;;19.83;8.68;;;;;;;8.11;67.53;93047.84;5078143;28;20032;-69
2020/12/28 09:22:44;;;;;;;16.83;7.50;;;;;;;8.15;66.85;93054.09;5079741;28;20024;-71
2020/12/28 09:25:09;;;;;;;13.45;6.72;;;;;;;8.22;66.55;93030.50;5081476;28;20024;-71
2020/12/28 09:27:35;;;;;;;25.95;7.75;;;;;;;8.25;66.61;93045.00;5081253;28;20024;-72
2020/12/28 09:30:06;;;;;;;14.27;7.38;;;;;;;8.29;66.60;93077.00;5080579;28;20639;-70
2020/12/28 09:32:32;;;;;;;10.33;6.57;;;;;;;8.37;66.90;93023.09;5075678;28;20028;-71
2020/12/28 09:34:57;;;;;;;16.23;6.65;;;;;;;8.45;65.68;93027.63;5078277;28;20025;-71
2020/12/28 09:37:23;;;;;;;15.68;7.15;;;;;;;8.44;66.70;93055.25;5077132;28;20042;-71
2020/12/28 09:39:48;;;;;;;16.65;6.95;;;;;;;8.48;66.81;93024.31;5079470;28;20047;-71
2020/12/28 09:42:14;;;;;;;13.50;7.68;;;;;;;8.48;65.19;93020.88;5078084;28;20024;-69
2020/12/28 09:44:39;;;;;;;16.90;8.13;;;;;;;8.33;66.83;93011.56;5079510;28;20543;-69
2020/12/28 09:47:04;;;;;;;14.35;7.60;;;;;;;8.36;66.04;93000.28;5084564;28;20115;-69
2020/12/28 09:49:30;;;;;;;10.63;5.05;;;;;;;8.40;62.51;93001.19;5084981;28;20031;-70
2020/12/28 09:51:56;;;;;;;15.90;7.05;;;;;;;8.49;65.08;93023.22;5076467;28;20051;-70
2020/12/28 09:54:23;;;;;;;18.20;7.63;;;;;;;8.56;64.29;93014.75;5079539;28;20028;-69
2020/12/28 09:56:48;;;;;;;14.95;6.40;;;;;;;8.69;64.20;93002.34;5077506;28;20029;-69
2020/12/28 09:59:14;;;;;;;17.20;6.60;;;;;;;8.82;63.20;92988.03;5078610;28;20090;-69
2020/12/28 10:01:43;;;;;;;12.13;5.68;;;;;;;8.94;63.41;93006.72;5075407;28;20093;-69
2020/12/28 10:04:09;;;;;;;10.77;5.93;;;;;;;9.10;63.58;92990.97;5078005;28;20085;-69
2020/12/28 10:06:35;;;;;;;10.95;4.80;;;;;;;9.23;61.66;92981.94;5074232;28;20704;-69
2020/12/28 10:09:06;;;;;;;7.97;4.50;;;;;;;9.43;60.93;92976.94;5080099;28;20024;-69
2020/12/28 10:11:33;;;;;;;15.52;4.97;;;;;;;9.57;60.63;92980.09;5081251;28;20406;-69
2020/12/28 10:13:59;;;;;;;10.02;4.07;;;;;;;9.69;60.00;92947.44;5079840;28;20028;-69
2020/12/28 10:16:26;;;;;;;5.07;3.08;;;;;;;9.77;53.70;92954.53;5082725;28;20398;-69
2020/12/28 10:18:55;;;;;;;9.38;2.85;;;;;;;9.85;53.16;92939.59;5078896;28;20028;-69
2020/12/28 10:21:22;;;;;;;13.20;2.58;;;;;;;9.88;51.11;92938.16;5081567;28;20020;-69
2020/12/28 10:23:48;;;;;;;6.53;2.75;;;;;;;9.88;51.75;92946.91;5081567;28;20027;-69
2020/12/28 10:26:20;;;;;;;6.43;3.42;;;;;;;9.98;49.29;92940.38;5078626;28;20088;-69
2020/12/28 10:28:46;;;;;;;3.60;1.25;;;;;;;9.97;47.43;92955.59;5074525;28;20021;-70
2020/12/28 10:31:13;;;;;;;1.00;0.50;;;;;;;10.02;42.95;92959.91;5074048;28;20035;-69
2020/12/28 10:33:42;;;;;;;1.40;0.80;;;;;;;10.11;45.20;92917.19;5080973;28;20021;-68
2020/12/28 10:36:21;;;;;;;1.23;0.45;;;;;;;10.18;43.33;92912.88;5076545;28;20107;-68
2020/12/28 10:38:48;;;;;;;1.27;0.70;;;;;;;10.28;42.79;92909.00;5076953;28;20416;-68
2020/12/28 10:41:14;;;;;;;1.70;0.70;;;;;;;10.25;42.77;92918.41;5077647;28;20103;-69
2020/12/28 10:43:40;;;;;;;1.77;0.77;;;;;;;10.22;42.91;92927.09;5072560;28;20114;-68
2020/12/28 10:46:09;;;;;;;9.00;1.17;;;;;;;10.29;43.93;92915.88;5078134;28;20064;-69
2020/12/28 10:48:35;;;;;;;2.25;0.60;;;;;;;10.30;41.55;92906.81;5076208;28;20023;-68
2020/12/28 10:51:02;;;;;;;1.45;0.60;;;;;;;10.32;42.29;92909.91;5075657;28;20089;-68
2020/12/28 10:53:27;;;;;;;2.30;0.73;;;;;;;10.49;41.99;92902.78;5077294;28;20578;-68
2020/12/28 10:55:53;;;;;;;1.55;0.70;;;;;;;10.62;42.80;92915.78;5082151;28;20102;-68
2020/12/28 10:58:18;;;;;;;3.47;1.20;;;;;;;10.70;46.20;92930.06;5075581;28;20028;-68
2020/12/28 11:00:44;;;;;;;1.73;0.80;;;;;;;10.70;39.16;92902.63;5078563;28;20024;-68
2020/12/28 11:03:09;;;;;;;1.63;0.75;;;;;;;10.85;37.33;92875.28;5081941;28;20151;-68
2020/12/28 11:05:35;;;;;;;1.45;0.68;;;;;;;10.92;40.58;92891.47;5077858;28;20118;-69
2020/12/28 11:08:00;;;;;;;6.97;1.27;;;;;;;11.13;43.01;92923.28;5076438;28;20504;-68
2020/12/28 11:10:26;;;;;;;4.80;1.17;;;;;;;11.33;41.22;92928.78;5081170;28;20101;-68
2020/12/28 11:12:51;;;;;;;3.95;0.52;;;;;;;11.55;37.00;92914.88;5079917;28;20032;-69
2020/12/28 11:15:17;;;;;;;2.45;0.63;;;;;;;11.58;36.96;92889.41;5072445;28;20417;-68
2020/12/28 11:17:42;;;;;;;2.70;0.80;;;;;;;11.58;37.22;92911.53;5078890;28;20020;-68
2020/12/28 11:20:09;;;;;;;1.52;0.65;;;;;;;11.54;36.27;92896.53;5073601;28;20040;-68
2020/12/28 11:22:34;;;;;;;1.58;0.40;;;;;;;11.64;35.36;92890.69;5079198;28;20027;-69
2020/12/28 11:25:00;;;;;;;1.90;0.50;;;;;;;11.74;35.69;92879.50;5081076;28;20024;-68
2020/12/28 11:27:26;;;;;;;0.93;0.38;;;;;;;11.92;36.79;92887.22;5077872;28;20032;-69
2020/12/28 11:29:52;;;;;;;1.15;0.40;;;;;;;11.96;36.64;92888.84;5083971;28;20024;-68
2020/12/28 11:32:18;;;;;;;1.17;0.50;;;;;;;11.83;35.54;92882.81;5076375;28;20132;-68
2020/12/28 11:34:43;;;;;;;1.60;0.38;;;;;;;11.68;36.55;92880.88;5080585;28;20098;-69
2020/12/28 11:37:09;;;;;;;2.25;0.40;;;;;;;11.73;38.06;92888.66;5080696;28;20547;-69